Portada
METAR-TAF:

METAR-TAF

Aeroports :

Ambon, Indonèsia

latitud: 03-42S, longitud: 128-05E, altitud: 12 m

Observació

L'informe es va fer fa 38 minuts, a les 02:00 UTC
Vent 6 kt del Sud/Sud-Est
Temperatura 30°C
Humitat 79%
Pressió 1012 hPa
Visibilitat 10 km o més
Núvols disperses a una alçada de 1800 ft

METAR: WAPP 280200Z 15006KT 9999 SCT018 30/26 Q1012 NOSIG

Hora: 11:38 (02:38 UTC)

Pronòstic

L'informe es va fer fa 3 hores i 38 minuts, a les 23:00 UTC
Pronòstic vàlid del 28 a les 00 UTC al 28 a les 24 UTC
Vent 7 kt del Sud/Sud-Est
Visibilitat 10 km o més
Núvols disperses a una alçada de 1800 ft
Evolucionant progressivament
l' 28 a les 09 UTC al 28 a les 11 UTC
Vent 6 kt del Nord

TAF: WAPP 272300Z 2800/2824 15007KT 9999 SCT018 BECMG 2809/2811 35006KT

Observacions i pronòstics meteorològics de més de 4000 aeroports (METAR i TAF).

Les estacions disponibles són els punts grocs i vermells al mapa.

Posi el ratolí al punt desitjat per veure el nom de l'estació.

Feu clic per veure les observacions i els pronòstics meteorològics.

Per canviar el mapa: feu clic els botons verds amb una creu de color negre per apropar; al botó verd amb un guió per allunyar la imatge; o en les fletxes verdes per a mapes adjacents.


METAR-TAF: